sensor_id;sensor_type;location;lat;lon;timestamp;pressure;altitude;pressure_sealevel;temperature
34023;BMP280;20673;48.980;8.138;2023-12-22T00:00:33;98962.42;;;11.01
34023;BMP280;20673;48.980;8.138;2023-12-22T00:02:59;98978.55;;;10.99
34023;BMP280;20673;48.980;8.138;2023-12-22T00:05:26;98984.04;;;10.93
34023;BMP280;20673;48.980;8.138;2023-12-22T00:07:52;98983.90;;;10.87
34023;BMP280;20673;48.980;8.138;2023-12-22T00:10:18;98990.36;;;10.87
34023;BMP280;20673;48.980;8.138;2023-12-22T00:12:44;98988.69;;;10.87
34023;BMP280;20673;48.980;8.138;2023-12-22T00:15:10;98993.25;;;10.89
34023;BMP280;20673;48.980;8.138;2023-12-22T00:17:36;98995.00;;;10.87
34023;BMP280;20673;48.980;8.138;2023-12-22T00:20:03;99005.10;;;10.87
34023;BMP280;20673;48.980;8.138;2023-12-22T00:22:29;99007.35;;;10.87
34023;BMP280;20673;48.980;8.138;2023-12-22T00:24:56;99015.92;;;10.83
34023;BMP280;20673;48.980;8.138;2023-12-22T00:27:22;99030.42;;;10.83
34023;BMP280;20673;48.980;8.138;2023-12-22T00:29:48;99029.68;;;10.81
34023;BMP280;20673;48.980;8.138;2023-12-22T00:32:14;99014.23;;;10.75
34023;BMP280;20673;48.980;8.138;2023-12-22T00:34:40;99021.79;;;10.72
34023;BMP280;20673;48.980;8.138;2023-12-22T00:37:06;99008.31;;;10.70
34023;BMP280;20673;48.980;8.138;2023-12-22T00:39:32;99013.23;;;10.66
34023;BMP280;20673;48.980;8.138;2023-12-22T00:41:58;99012.22;;;10.58
34023;BMP280;20673;48.980;8.138;2023-12-22T00:44:25;99006.68;;;10.54
34023;BMP280;20673;48.980;8.138;2023-12-22T00:46:53;99000.12;;;10.55
34023;BMP280;20673;48.980;8.138;2023-12-22T00:49:19;98982.09;;;10.55
34023;BMP280;20673;48.980;8.138;2023-12-22T00:51:47;98968.06;;;10.54
34023;BMP280;20673;48.980;8.138;2023-12-22T00:54:13;98975.64;;;10.58
34023;BMP280;20673;48.980;8.138;2023-12-22T00:56:39;98974.04;;;10.63
34023;BMP280;20673;48.980;8.138;2023-12-22T00:59:05;98971.26;;;10.60
34023;BMP280;20673;48.980;8.138;2023-12-22T01:01:31;98984.33;;;10.57
34023;BMP280;20673;48.980;8.138;2023-12-22T01:03:58;98986.79;;;10.54
34023;BMP280;20673;48.980;8.138;2023-12-22T01:06:24;98990.26;;;10.47
34023;BMP280;20673;48.980;8.138;2023-12-22T01:08:50;99010.93;;;10.41
34023;BMP280;20673;48.980;8.138;2023-12-22T01:11:17;99020.12;;;10.46
34023;BMP280;20673;48.980;8.138;2023-12-22T01:13:43;99030.53;;;10.39
34023;BMP280;20673;48.980;8.138;2023-12-22T01:16:10;99044.61;;;10.37
34023;BMP280;20673;48.980;8.138;2023-12-22T01:18:36;99041.93;;;10.30
34023;BMP280;20673;48.980;8.138;2023-12-22T01:21:02;99058.26;;;10.23
34023;BMP280;20673;48.980;8.138;2023-12-22T01:23:29;99063.62;;;10.19
34023;BMP280;20673;48.980;8.138;2023-12-22T01:25:55;99058.82;;;10.16
34023;BMP280;20673;48.980;8.138;2023-12-22T01:28:21;99056.48;;;10.22
34023;BMP280;20673;48.980;8.138;2023-12-22T01:30:47;99071.30;;;10.19
34023;BMP280;20673;48.980;8.138;2023-12-22T01:33:13;99071.35;;;10.15
34023;BMP280;20673;48.980;8.138;2023-12-22T01:35:39;99072.64;;;10.10
34023;BMP280;20673;48.980;8.138;2023-12-22T01:38:05;99081.08;;;10.03
34023;BMP280;20673;48.980;8.138;2023-12-22T01:40:31;99085.48;;;9.97
34023;BMP280;20673;48.980;8.138;2023-12-22T01:42:57;99084.35;;;10.08
34023;BMP280;20673;48.980;8.138;2023-12-22T01:45:23;99093.11;;;10.10
34023;BMP280;20673;48.980;8.138;2023-12-22T01:47:49;99070.45;;;10.09
34023;BMP280;20673;48.980;8.138;2023-12-22T01:50:16;99085.97;;;10.10
34023;BMP280;20673;48.980;8.138;2023-12-22T01:52:44;99085.01;;;10.07
34023;BMP280;20673;48.980;8.138;2023-12-22T01:55:12;99095.06;;;10.04
34023;BMP280;20673;48.980;8.138;2023-12-22T01:57:40;99106.14;;;10.00
34023;BMP280;20673;48.980;8.138;2023-12-22T02:00:08;99096.93;;;9.97
34023;BMP280;20673;48.980;8.138;2023-12-22T02:02:35;99105.27;;;10.00
34023;BMP280;20673;48.980;8.138;2023-12-22T02:05:02;99107.51;;;10.00
34023;BMP280;20673;48.980;8.138;2023-12-22T02:07:29;99091.62;;;9.95
34023;BMP280;20673;48.980;8.138;2023-12-22T02:09:55;99078.72;;;9.92
34023;BMP280;20673;48.980;8.138;2023-12-22T02:12:21;99076.68;;;9.91
34023;BMP280;20673;48.980;8.138;2023-12-22T02:14:48;99084.78;;;9.93
34023;BMP280;20673;48.980;8.138;2023-12-22T02:17:33;99088.10;;;9.91
34023;BMP280;20673;48.980;8.138;2023-12-22T02:19:58;99093.28;;;9.89
34023;BMP280;20673;48.980;8.138;2023-12-22T02:24:50;99105.31;;;9.85
34023;BMP280;20673;48.980;8.138;2023-12-22T02:27:50;99101.46;;;9.92
34023;BMP280;20673;48.980;8.138;2023-12-22T02:33:08;99088.90;;;9.81
34023;BMP280;20673;48.980;8.138;2023-12-22T02:35:38;99093.00;;;9.73
34023;BMP280;20673;48.980;8.138;2023-12-22T02:38:08;99068.83;;;9.69
34023;BMP280;20673;48.980;8.138;2023-12-22T02:40:35;99098.19;;;9.72
34023;BMP280;20673;48.980;8.138;2023-12-22T02:43:03;99082.88;;;9.73
34023;BMP280;20673;48.980;8.138;2023-12-22T02:45:30;99080.61;;;9.80
34023;BMP280;20673;48.980;8.138;2023-12-22T02:47:56;99096.75;;;9.78
34023;BMP280;20673;48.980;8.138;2023-12-22T02:50:22;99101.58;;;9.84
34023;BMP280;20673;48.980;8.138;2023-12-22T02:52:48;99096.27;;;9.84
34023;BMP280;20673;48.980;8.138;2023-12-22T02:55:14;99093.79;;;9.80
34023;BMP280;20673;48.980;8.138;2023-12-22T02:57:40;99090.97;;;9.84
34023;BMP280;20673;48.980;8.138;2023-12-22T03:00:07;99085.98;;;9.88
34023;BMP280;20673;48.980;8.138;2023-12-22T03:02:33;99077.11;;;9.91
34023;BMP280;20673;48.980;8.138;2023-12-22T03:05:00;99106.23;;;9.98
34023;BMP280;20673;48.980;8.138;2023-12-22T03:07:26;99119.25;;;9.93
34023;BMP280;20673;48.980;8.138;2023-12-22T03:09:52;99119.87;;;9.84
34023;BMP280;20673;48.980;8.138;2023-12-22T03:12:18;99111.29;;;9.89
34023;BMP280;20673;48.980;8.138;2023-12-22T03:14:44;99126.81;;;9.87
34023;BMP280;20673;48.980;8.138;2023-12-22T03:17:10;99103.29;;;9.84
34023;BMP280;20673;48.980;8.138;2023-12-22T03:19:36;99099.76;;;9.86
34023;BMP280;20673;48.980;8.138;2023-12-22T03:22:03;99116.31;;;9.83
34023;BMP280;20673;48.980;8.138;2023-12-22T03:24:29;99097.56;;;9.86
34023;BMP280;20673;48.980;8.138;2023-12-22T03:26:55;99099.72;;;9.88
34023;BMP280;20673;48.980;8.138;2023-12-22T03:29:21;99094.28;;;9.89
34023;BMP280;20673;48.980;8.138;2023-12-22T03:31:47;99118.47;;;9.91
34023;BMP280;20673;48.980;8.138;2023-12-22T03:34:13;99105.01;;;9.93
34023;BMP280;20673;48.980;8.138;2023-12-22T03:36:39;99119.29;;;9.97
34023;BMP280;20673;48.980;8.138;2023-12-22T03:39:06;99124.81;;;10.03
34023;BMP280;20673;48.980;8.138;2023-12-22T03:41:32;99097.79;;;10.06
34023;BMP280;20673;48.980;8.138;2023-12-22T03:43:58;99156.54;;;10.02
34023;BMP280;20673;48.980;8.138;2023-12-22T03:46:24;99168.63;;;9.98
34023;BMP280;20673;48.980;8.138;2023-12-22T03:48:51;99165.22;;;9.87
34023;BMP280;20673;48.980;8.138;2023-12-22T03:51:17;99170.18;;;9.72
34023;BMP280;20673;48.980;8.138;2023-12-22T03:53:43;99170.78;;;9.59
34023;BMP280;20673;48.980;8.138;2023-12-22T03:56:09;99167.62;;;9.54
34023;BMP280;20673;48.980;8.138;2023-12-22T03:58:36;99160.88;;;9.45
34023;BMP280;20673;48.980;8.138;2023-12-22T04:01:03;99154.07;;;9.40
34023;BMP280;20673;48.980;8.138;2023-12-22T04:03:29;99155.64;;;9.36
34023;BMP280;20673;48.980;8.138;2023-12-22T04:05:55;99169.97;;;9.31
34023;BMP280;20673;48.980;8.138;2023-12-22T04:08:21;99177.92;;;9.33
34023;BMP280;20673;48.980;8.138;2023-12-22T04:10:48;99171.42;;;9.32
34023;BMP280;20673;48.980;8.138;2023-12-22T04:13:14;99147.75;;;9.33
34023;BMP280;20673;48.980;8.138;2023-12-22T04:15:40;99167.55;;;9.29
34023;BMP280;20673;48.980;8.138;2023-12-22T04:18:06;99148.75;;;9.31
34023;BMP280;20673;48.980;8.138;2023-12-22T04:20:32;99173.18;;;9.28
34023;BMP280;20673;48.980;8.138;2023-12-22T04:22:59;99151.01;;;9.29
34023;BMP280;20673;48.980;8.138;2023-12-22T04:25:25;99153.59;;;9.33
34023;BMP280;20673;48.980;8.138;2023-12-22T04:27:52;99154.68;;;9.37
34023;BMP280;20673;48.980;8.138;2023-12-22T04:30:18;99150.13;;;9.38
34023;BMP280;20673;48.980;8.138;2023-12-22T04:32:44;99152.31;;;9.45
34023;BMP280;20673;48.980;8.138;2023-12-22T04:35:10;99153.59;;;9.48
34023;BMP280;20673;48.980;8.138;2023-12-22T04:37:36;99155.96;;;9.48
34023;BMP280;20673;48.980;8.138;2023-12-22T04:40:03;99163.50;;;9.47
34023;BMP280;20673;48.980;8.138;2023-12-22T04:42:29;99169.42;;;9.43
34023;BMP280;20673;48.980;8.138;2023-12-22T04:44:56;99177.42;;;9.45
34023;BMP280;20673;48.980;8.138;2023-12-22T04:47:22;99178.17;;;9.45
34023;BMP280;20673;48.980;8.138;2023-12-22T04:49:48;99197.03;;;9.45
34023;BMP280;20673;48.980;8.138;2023-12-22T04:52:14;99188.34;;;9.50
34023;BMP280;20673;48.980;8.138;2023-12-22T04:54:40;99176.45;;;9.54
34023;BMP280;20673;48.980;8.138;2023-12-22T04:57:06;99185.15;;;9.53
34023;BMP280;20673;48.980;8.138;2023-12-22T04:59:33;99172.56;;;9.55
34023;BMP280;20673;48.980;8.138;2023-12-22T05:01:59;99178.28;;;9.59
34023;BMP280;20673;48.980;8.138;2023-12-22T05:04:25;99164.93;;;9.58
34023;BMP280;20673;48.980;8.138;2023-12-22T05:06:51;99156.93;;;9.62
34023;BMP280;20673;48.980;8.138;2023-12-22T05:09:17;99167.61;;;9.66
34023;BMP280;20673;48.980;8.138;2023-12-22T05:11:43;99200.74;;;9.67
34023;BMP280;20673;48.980;8.138;2023-12-22T05:14:09;99188.40;;;9.73
34023;BMP280;20673;48.980;8.138;2023-12-22T05:16:36;99186.29;;;9.78
34023;BMP280;20673;48.980;8.138;2023-12-22T05:19:02;99203.29;;;9.79
34023;BMP280;20673;48.980;8.138;2023-12-22T05:21:28;99202.30;;;9.82
34023;BMP280;20673;48.980;8.138;2023-12-22T05:23:55;99209.61;;;9.87
34023;BMP280;20673;48.980;8.138;2023-12-22T05:26:22;99222.42;;;9.89
34023;BMP280;20673;48.980;8.138;2023-12-22T05:28:49;99231.18;;;9.87
34023;BMP280;20673;48.980;8.138;2023-12-22T05:31:16;99226.94;;;9.87
34023;BMP280;20673;48.980;8.138;2023-12-22T05:33:43;99228.56;;;9.87
34023;BMP280;20673;48.980;8.138;2023-12-22T05:36:09;99226.78;;;9.89
34023;BMP280;20673;48.980;8.138;2023-12-22T05:38:39;99220.78;;;9.91
34023;BMP280;20673;48.980;8.138;2023-12-22T05:41:06;99235.29;;;9.95
34023;BMP280;20673;48.980;8.138;2023-12-22T05:43:34;99248.54;;;10.00
34023;BMP280;20673;48.980;8.138;2023-12-22T05:46:00;99250.21;;;10.01
34023;BMP280;20673;48.980;8.138;2023-12-22T05:48:27;99234.18;;;10.01
34023;BMP280;20673;48.980;8.138;2023-12-22T05:50:56;99250.24;;;10.00
34023;BMP280;20673;48.980;8.138;2023-12-22T05:53:23;99251.45;;;10.03
34023;BMP280;20673;48.980;8.138;2023-12-22T05:55:49;99249.09;;;10.04
34023;BMP280;20673;48.980;8.138;2023-12-22T05:58:15;99257.54;;;10.03
34023;BMP280;20673;48.980;8.138;2023-12-22T06:00:41;99254.48;;;10.05
34023;BMP280;20673;48.980;8.138;2023-12-22T06:03:08;99257.50;;;10.03
34023;BMP280;20673;48.980;8.138;2023-12-22T06:05:34;99252.65;;;10.05
34023;BMP280;20673;48.980;8.138;2023-12-22T06:08:00;99241.87;;;10.06
34023;BMP280;20673;48.980;8.138;2023-12-22T06:10:26;99243.19;;;10.07
34023;BMP280;20673;48.980;8.138;2023-12-22T06:12:52;99247.68;;;10.10
34023;BMP280;20673;48.980;8.138;2023-12-22T06:15:18;99256.47;;;10.03
34023;BMP280;20673;48.980;8.138;2023-12-22T06:17:44;99255.79;;;9.96
34023;BMP280;20673;48.980;8.138;2023-12-22T06:20:10;99267.40;;;9.91
34023;BMP280;20673;48.980;8.138;2023-12-22T06:22:36;99281.84;;;9.91
34023;BMP280;20673;48.980;8.138;2023-12-22T06:25:03;99276.11;;;9.88
34023;BMP280;20673;48.980;8.138;2023-12-22T06:27:31;99281.18;;;9.91
34023;BMP280;20673;48.980;8.138;2023-12-22T06:29:57;99292.40;;;9.81
34023;BMP280;20673;48.980;8.138;2023-12-22T06:32:24;99283.90;;;9.69
34023;BMP280;20673;48.980;8.138;2023-12-22T06:34:50;99299.86;;;9.68
34023;BMP280;20673;48.980;8.138;2023-12-22T06:37:16;99294.61;;;9.60
34023;BMP280;20673;48.980;8.138;2023-12-22T06:39:42;99288.36;;;9.64
34023;BMP280;20673;48.980;8.138;2023-12-22T06:42:08;99305.65;;;9.56
34023;BMP280;20673;48.980;8.138;2023-12-22T06:44:37;99314.34;;;9.60
34023;BMP280;20673;48.980;8.138;2023-12-22T06:47:03;99315.78;;;9.57
34023;BMP280;20673;48.980;8.138;2023-12-22T06:49:31;99310.07;;;9.51
34023;BMP280;20673;48.980;8.138;2023-12-22T06:51:57;99305.31;;;9.44
34023;BMP280;20673;48.980;8.138;2023-12-22T06:54:23;99296.42;;;9.41
34023;BMP280;20673;48.980;8.138;2023-12-22T06:56:49;99299.92;;;9.35
34023;BMP280;20673;48.980;8.138;2023-12-22T06:59:15;99303.00;;;9.30
34023;BMP280;20673;48.980;8.138;2023-12-22T07:01:41;99305.56;;;9.28
34023;BMP280;20673;48.980;8.138;2023-12-22T07:04:07;99301.39;;;9.23
34023;BMP280;20673;48.980;8.138;2023-12-22T07:06:34;99302.96;;;9.15
34023;BMP280;20673;48.980;8.138;2023-12-22T07:11:47;99305.39;;;9.06
34023;BMP280;20673;48.980;8.138;2023-12-22T07:14:13;99298.29;;;9.04
34023;BMP280;20673;48.980;8.138;2023-12-22T07:16:39;99293.08;;;9.05
34023;BMP280;20673;48.980;8.138;2023-12-22T07:19:05;99283.43;;;9.01
34023;BMP280;20673;48.980;8.138;2023-12-22T07:21:32;99277.08;;;8.98
34023;BMP280;20673;48.980;8.138;2023-12-22T07:23:58;99274.18;;;8.97
34023;BMP280;20673;48.980;8.138;2023-12-22T07:26:24;99273.87;;;8.94
34023;BMP280;20673;48.980;8.138;2023-12-22T07:28:53;99281.26;;;8.91
34023;BMP280;20673;48.980;8.138;2023-12-22T07:31:19;99291.83;;;8.91
34023;BMP280;20673;48.980;8.138;2023-12-22T07:33:46;99287.39;;;8.91
34023;BMP280;20673;48.980;8.138;2023-12-22T07:36:12;99292.87;;;8.88
34023;BMP280;20673;48.980;8.138;2023-12-22T07:38:38;99292.17;;;8.94
34023;BMP280;20673;48.980;8.138;2023-12-22T07:41:08;99294.27;;;9.10
34023;BMP280;20673;48.980;8.138;2023-12-22T07:43:34;99300.33;;;9.27
34023;BMP280;20673;48.980;8.138;2023-12-22T07:46:00;99300.00;;;9.35
34023;BMP280;20673;48.980;8.138;2023-12-22T07:48:26;99306.07;;;9.38
34023;BMP280;20673;48.980;8.138;2023-12-22T07:50:52;99301.82;;;9.43
34023;BMP280;20673;48.980;8.138;2023-12-22T07:53:19;99313.33;;;9.47
34023;BMP280;20673;48.980;8.138;2023-12-22T07:55:46;99327.67;;;9.55
34023;BMP280;20673;48.980;8.138;2023-12-22T07:58:13;99333.65;;;9.57
34023;BMP280;20673;48.980;8.138;2023-12-22T08:00:40;99335.64;;;9.57
34023;BMP280;20673;48.980;8.138;2023-12-22T08:03:06;99341.70;;;9.67
34023;BMP280;20673;48.980;8.138;2023-12-22T08:05:32;99351.56;;;9.76
34023;BMP280;20673;48.980;8.138;2023-12-22T08:07:59;99356.79;;;9.77
34023;BMP280;20673;48.980;8.138;2023-12-22T08:10:25;99348.14;;;9.78
34023;BMP280;20673;48.980;8.138;2023-12-22T08:12:53;99330.72;;;9.83
34023;BMP280;20673;48.980;8.138;2023-12-22T08:15:19;99347.36;;;9.80
34023;BMP280;20673;48.980;8.138;2023-12-22T08:17:49;99356.14;;;9.78
34023;BMP280;20673;48.980;8.138;2023-12-22T08:20:20;99359.33;;;9.76
34023;BMP280;20673;48.980;8.138;2023-12-22T08:22:48;99352.40;;;9.76
34023;BMP280;20673;48.980;8.138;2023-12-22T08:25:15;99373.62;;;9.74
34023;BMP280;20673;48.980;8.138;2023-12-22T08:27:42;99360.01;;;9.81
34023;BMP280;20673;48.980;8.138;2023-12-22T08:30:11;99374.15;;;9.79
34023;BMP280;20673;48.980;8.138;2023-12-22T08:32:38;99374.06;;;9.78
34023;BMP280;20673;48.980;8.138;2023-12-22T08:35:05;99376.71;;;9.78
34023;BMP280;20673;48.980;8.138;2023-12-22T08:37:32;99375.65;;;9.79
34023;BMP280;20673;48.980;8.138;2023-12-22T08:39:58;99378.95;;;9.76
34023;BMP280;20673;48.980;8.138;2023-12-22T08:42:25;99374.34;;;9.76
34023;BMP280;20673;48.980;8.138;2023-12-22T08:44:52;99370.37;;;9.78
34023;BMP280;20673;48.980;8.138;2023-12-22T08:47:18;99367.54;;;9.77
34023;BMP280;20673;48.980;8.138;2023-12-22T08:49:44;99364.02;;;9.78
34023;BMP280;20673;48.980;8.138;2023-12-22T08:52:10;99374.47;;;9.78
34023;BMP280;20673;48.980;8.138;2023-12-22T08:54:36;99371.62;;;9.83
34023;BMP280;20673;48.980;8.138;2023-12-22T08:57:03;99373.96;;;9.82
34023;BMP280;20673;48.980;8.138;2023-12-22T08:59:29;99380.83;;;9.78
34023;BMP280;20673;48.980;8.138;2023-12-22T09:01:55;99380.22;;;9.80
34023;BMP280;20673;48.980;8.138;2023-12-22T09:04:21;99383.08;;;9.81
34023;BMP280;20673;48.980;8.138;2023-12-22T09:06:50;99381.86;;;9.80
34023;BMP280;20673;48.980;8.138;2023-12-22T09:09:17;99372.04;;;9.79
34023;BMP280;20673;48.980;8.138;2023-12-22T09:11:44;99373.70;;;9.83
34023;BMP280;20673;48.980;8.138;2023-12-22T09:14:10;99375.29;;;9.86
34023;BMP280;20673;48.980;8.138;2023-12-22T09:16:37;99363.60;;;9.88
34023;BMP280;20673;48.980;8.138;2023-12-22T09:19:04;99354.70;;;9.91
34023;BMP280;20673;48.980;8.138;2023-12-22T09:21:30;99361.55;;;9.94
34023;BMP280;20673;48.980;8.138;2023-12-22T09:23:56;99354.65;;;9.92
34023;BMP280;20673;48.980;8.138;2023-12-22T09:26:22;99344.29;;;9.94
34023;BMP280;20673;48.980;8.138;2023-12-22T09:28:48;99346.62;;;9.98
34023;BMP280;20673;48.980;8.138;2023-12-22T09:31:14;99341.20;;;10.01
34023;BMP280;20673;48.980;8.138;2023-12-22T09:33:42;99344.22;;;9.99
34023;BMP280;20673;48.980;8.138;2023-12-22T09:36:09;99346.86;;;10.05
34023;BMP280;20673;48.980;8.138;2023-12-22T09:38:36;99349.42;;;10.02
34023;BMP280;20673;48.980;8.138;2023-12-22T09:41:03;99353.45;;;10.04
34023;BMP280;20673;48.980;8.138;2023-12-22T09:43:35;99354.48;;;10.04
34023;BMP280;20673;48.980;8.138;2023-12-22T09:46:03;99360.09;;;10.04
34023;BMP280;20673;48.980;8.138;2023-12-22T09:48:30;99359.48;;;10.06
34023;BMP280;20673;48.980;8.138;2023-12-22T09:51:01;99365.04;;;10.07
34023;BMP280;20673;48.980;8.138;2023-12-22T09:53:28;99363.88;;;10.08
34023;BMP280;20673;48.980;8.138;2023-12-22T09:55:58;99359.48;;;10.10
34023;BMP280;20673;48.980;8.138;2023-12-22T09:58:25;99364.92;;;10.09
34023;BMP280;20673;48.980;8.138;2023-12-22T10:00:53;99373.96;;;10.05
34023;BMP280;20673;48.980;8.138;2023-12-22T10:03:22;99361.83;;;10.03
34023;BMP280;20673;48.980;8.138;2023-12-22T10:05:50;99355.95;;;9.95
34023;BMP280;20673;48.980;8.138;2023-12-22T10:08:18;99354.47;;;9.86
34023;BMP280;20673;48.980;8.138;2023-12-22T10:10:47;99353.70;;;9.79
34023;BMP280;20673;48.980;8.138;2023-12-22T10:13:14;99360.15;;;9.75
34023;BMP280;20673;48.980;8.138;2023-12-22T10:15:41;99354.11;;;9.69
34023;BMP280;20673;48.980;8.138;2023-12-22T10:18:10;99346.69;;;9.62
34023;BMP280;20673;48.980;8.138;2023-12-22T10:20:36;99349.06;;;9.63
34023;BMP280;20673;48.980;8.138;2023-12-22T10:23:03;99348.56;;;9.63
34023;BMP280;20673;48.980;8.138;2023-12-22T10:25:29;99350.47;;;9.54
34023;BMP280;20673;48.980;8.138;2023-12-22T10:27:56;99343.76;;;9.55
34023;BMP280;20673;48.980;8.138;2023-12-22T10:30:23;99342.96;;;9.52
34023;BMP280;20673;48.980;8.138;2023-12-22T10:32:52;99340.89;;;9.47
34023;BMP280;20673;48.980;8.138;2023-12-22T10:35:20;99332.11;;;9.40
34023;BMP280;20673;48.980;8.138;2023-12-22T10:37:47;99337.12;;;9.40
34023;BMP280;20673;48.980;8.138;2023-12-22T10:40:13;99330.58;;;9.39
34023;BMP280;20673;48.980;8.138;2023-12-22T10:42:40;99326.81;;;9.34
34023;BMP280;20673;48.980;8.138;2023-12-22T10:45:08;99325.04;;;9.36
34023;BMP280;20673;48.980;8.138;2023-12-22T10:47:34;99316.26;;;9.37
34023;BMP280;20673;48.980;8.138;2023-12-22T10:50:04;99310.62;;;9.37
34023;BMP280;20673;48.980;8.138;2023-12-22T10:52:30;99304.33;;;9.39
34023;BMP280;20673;48.980;8.138;2023-12-22T10:54:59;99312.04;;;9.40
34023;BMP280;20673;48.980;8.138;2023-12-22T10:57:26;99297.04;;;9.40
34023;BMP280;20673;48.980;8.138;2023-12-22T10:59:56;99307.33;;;9.40
34023;BMP280;20673;48.980;8.138;2023-12-22T11:02:27;99300.28;;;9.41
34023;BMP280;20673;48.980;8.138;2023-12-22T11:05:03;99287.63;;;9.41
34023;BMP280;20673;48.980;8.138;2023-12-22T11:07:36;99298.47;;;9.44
34023;BMP280;20673;48.980;8.138;2023-12-22T11:10:06;99293.58;;;9.44
34023;BMP280;20673;48.980;8.138;2023-12-22T11:12:36;99301.59;;;9.46
34023;BMP280;20673;48.980;8.138;2023-12-22T11:15:05;99288.54;;;9.50
34023;BMP280;20673;48.980;8.138;2023-12-22T11:17:33;99287.26;;;9.50
34023;BMP280;20673;48.980;8.138;2023-12-22T11:20:00;99276.95;;;9.54
34023;BMP280;20673;48.980;8.138;2023-12-22T11:22:28;99279.79;;;9.57
34023;BMP280;20673;48.980;8.138;2023-12-22T11:24:58;99277.59;;;9.59
34023;BMP280;20673;48.980;8.138;2023-12-22T11:27:26;99272.47;;;9.60
34023;BMP280;20673;48.980;8.138;2023-12-22T11:29:53;99273.50;;;9.61
34023;BMP280;20673;48.980;8.138;2023-12-22T11:32:20;99269.81;;;9.60
34023;BMP280;20673;48.980;8.138;2023-12-22T11:34:47;99266.34;;;9.56
34023;BMP280;20673;48.980;8.138;2023-12-22T11:37:15;99258.42;;;9.54
34023;BMP280;20673;48.980;8.138;2023-12-22T11:39:45;99250.37;;;9.52
34023;BMP280;20673;48.980;8.138;2023-12-22T11:42:18;99240.20;;;9.49
34023;BMP280;20673;48.980;8.138;2023-12-22T11:44:45;99242.51;;;9.45
34023;BMP280;20673;48.980;8.138;2023-12-22T11:47:14;99238.68;;;9.42
34023;BMP280;20673;48.980;8.138;2023-12-22T11:49:41;99226.86;;;9.40
34023;BMP280;20673;48.980;8.138;2023-12-22T11:52:15;99220.14;;;9.39
34023;BMP280;20673;48.980;8.138;2023-12-22T11:54:52;99222.08;;;9.37
34023;BMP280;20673;48.980;8.138;2023-12-22T11:57:32;99209.31;;;9.35
34023;BMP280;20673;48.980;8.138;2023-12-22T12:00:09;99212.05;;;9.36
34023;BMP280;20673;48.980;8.138;2023-12-22T12:02:39;99200.27;;;9.35
34023;BMP280;20673;48.980;8.138;2023-12-22T12:05:08;99195.43;;;9.36
34023;BMP280;20673;48.980;8.138;2023-12-22T12:07:44;99202.68;;;9.37
34023;BMP280;20673;48.980;8.138;2023-12-22T12:10:36;99191.86;;;9.36
34023;BMP280;20673;48.980;8.138;2023-12-22T12:13:07;99181.29;;;9.38
34023;BMP280;20673;48.980;8.138;2023-12-22T12:15:35;99185.65;;;9.36
34023;BMP280;20673;48.980;8.138;2023-12-22T12:18:03;99177.65;;;9.37
34023;BMP280;20673;48.980;8.138;2023-12-22T12:20:30;99181.80;;;9.41
34023;BMP280;20673;48.980;8.138;2023-12-22T12:22:56;99167.26;;;9.41
34023;BMP280;20673;48.980;8.138;2023-12-22T12:25:24;99162.72;;;9.47
34023;BMP280;20673;48.980;8.138;2023-12-22T12:28:07;99155.97;;;9.53
34023;BMP280;20673;48.980;8.138;2023-12-22T12:30:38;99144.75;;;9.60
34023;BMP280;20673;48.980;8.138;2023-12-22T12:33:09;99142.93;;;9.68
34023;BMP280;20673;48.980;8.138;2023-12-22T12:35:37;99147.75;;;9.73
34023;BMP280;20673;48.980;8.138;2023-12-22T12:38:04;99149.95;;;9.78
34023;BMP280;20673;48.980;8.138;2023-12-22T12:40:32;99155.77;;;9.82
34023;BMP280;20673;48.980;8.138;2023-12-22T12:43:01;99147.50;;;9.88
34023;BMP280;20673;48.980;8.138;2023-12-22T12:45:28;99149.25;;;9.89
34023;BMP280;20673;48.980;8.138;2023-12-22T12:48:00;99146.89;;;9.93
34023;BMP280;20673;48.980;8.138;2023-12-22T12:50:27;99148.25;;;9.94
34023;BMP280;20673;48.980;8.138;2023-12-22T12:52:57;99140.33;;;10.01
34023;BMP280;20673;48.980;8.138;2023-12-22T12:55:25;99142.53;;;10.03
34023;BMP280;20673;48.980;8.138;2023-12-22T12:57:52;99139.25;;;10.05
34023;BMP280;20673;48.980;8.138;2023-12-22T13:00:26;99142.28;;;10.08
34023;BMP280;20673;48.980;8.138;2023-12-22T13:03:05;99140.29;;;10.09
34023;BMP280;20673;48.980;8.138;2023-12-22T13:05:32;99143.36;;;10.13
34023;BMP280;20673;48.980;8.138;2023-12-22T13:08:11;99150.17;;;10.16
34023;BMP280;20673;48.980;8.138;2023-12-22T13:10:38;99144.39;;;10.19
34023;BMP280;20673;48.980;8.138;2023-12-22T13:13:05;99140.65;;;10.21
34023;BMP280;20673;48.980;8.138;2023-12-22T13:15:32;99154.72;;;10.23
34023;BMP280;20673;48.980;8.138;2023-12-22T13:17:58;99153.31;;;10.25
34023;BMP280;20673;48.980;8.138;2023-12-22T13:20:24;99156.09;;;10.27
34023;BMP280;20673;48.980;8.138;2023-12-22T13:22:51;99160.53;;;10.28
34023;BMP280;20673;48.980;8.138;2023-12-22T13:25:17;99158.92;;;10.27
34023;BMP280;20673;48.980;8.138;2023-12-22T13:27:48;99161.48;;;10.30
34023;BMP280;20673;48.980;8.138;2023-12-22T13:33:07;99151.61;;;10.32
34023;BMP280;20673;48.980;8.138;2023-12-22T13:35:37;99150.86;;;10.31
34023;BMP280;20673;48.980;8.138;2023-12-22T13:38:07;99141.18;;;10.31
34023;BMP280;20673;48.980;8.138;2023-12-22T13:40:35;99144.96;;;10.35
34023;BMP280;20673;48.980;8.138;2023-12-22T13:43:02;99146.57;;;10.39
34023;BMP280;20673;48.980;8.138;2023-12-22T13:45:29;99154.11;;;10.42
34023;BMP280;20673;48.980;8.138;2023-12-22T13:47:57;99150.29;;;10.43
34023;BMP280;20673;48.980;8.138;2023-12-22T13:50:24;99157.48;;;10.41
34023;BMP280;20673;48.980;8.138;2023-12-22T13:52:50;99156.45;;;10.42
34023;BMP280;20673;48.980;8.138;2023-12-22T13:55:19;99160.43;;;10.40
34023;BMP280;20673;48.980;8.138;2023-12-22T13:57:48;99166.33;;;10.40
34023;BMP280;20673;48.980;8.138;2023-12-22T14:00:25;99167.40;;;10.44
34023;BMP280;20673;48.980;8.138;2023-12-22T14:02:52;99167.69;;;10.45
34023;BMP280;20673;48.980;8.138;2023-12-22T14:05:19;99174.29;;;10.47
34023;BMP280;20673;48.980;8.138;2023-12-22T14:07:45;99170.64;;;10.48
34023;BMP280;20673;48.980;8.138;2023-12-22T14:10:12;99169.26;;;10.49
34023;BMP280;20673;48.980;8.138;2023-12-22T14:12:40;99180.36;;;10.52
34023;BMP280;20673;48.980;8.138;2023-12-22T14:15:12;99178.40;;;10.51
34023;BMP280;20673;48.980;8.138;2023-12-22T14:17:39;99182.75;;;10.56
34023;BMP280;20673;48.980;8.138;2023-12-22T14:20:08;99177.43;;;10.59
34023;BMP280;20673;48.980;8.138;2023-12-22T14:22:37;99182.20;;;10.62
34023;BMP280;20673;48.980;8.138;2023-12-22T14:25:04;99181.15;;;10.63
34023;BMP280;20673;48.980;8.138;2023-12-22T14:27:31;99178.87;;;10.63